createdAt,value
2023-04-12T00:01:50.944Z,9.00
2023-04-12T00:04:52.947Z,8.90
2023-04-12T00:07:54.811Z,8.80
2023-04-12T00:10:56.411Z,8.80
2023-04-12T00:13:58.211Z,8.90
2023-04-12T00:17:00.152Z,8.50
2023-04-12T00:23:04.091Z,8.70
2023-04-12T00:26:08.726Z,8.00
2023-04-12T00:29:10.679Z,8.50
2023-04-12T00:32:12.284Z,8.30
2023-04-12T00:38:16.769Z,8.10
2023-04-12T00:44:19.802Z,8.20
2023-04-12T00:50:23.302Z,8.20
2023-04-12T00:53:24.928Z,8.50
2023-04-12T00:59:28.700Z,8.90
2023-04-12T01:02:30.564Z,8.70
2023-04-12T01:05:46.167Z,9.20
2023-04-12T01:08:58.911Z,9.80
2023-04-12T01:12:06.689Z,9.20
2023-04-12T01:15:13.513Z,9.70
2023-04-12T01:18:19.376Z,10.40
2023-04-12T01:22:02.411Z,9.50
2023-04-12T01:25:18.324Z,9.40
2023-04-12T01:28:35.252Z,8.70
2023-04-12T01:31:57.864Z,9.20
2023-04-12T01:35:01.182Z,8.60
2023-04-12T01:38:03.386Z,9.60
2023-04-12T01:41:05.463Z,9.10
2023-04-12T01:44:07.164Z,9.80
2023-04-12T01:47:08.786Z,10.30
2023-04-12T01:53:31.707Z,10.20
2023-04-12T01:56:34.628Z,10.10
2023-04-12T01:59:41.499Z,10.20
2023-04-12T02:02:43.519Z,10.30
2023-04-12T02:05:45.455Z,13.20
2023-04-12T02:08:47.615Z,17.70
2023-04-12T02:11:49.608Z,21.70
2023-04-12T02:14:51.229Z,24.20
2023-04-12T02:17:52.976Z,27.70
2023-04-12T02:23:56.519Z,30.20
2023-04-12T02:26:59.099Z,33.50
2023-04-12T02:30:00.711Z,35.20
2023-04-12T02:33:02.592Z,34.20
2023-04-12T02:36:04.538Z,34.90
2023-04-12T02:39:06.253Z,34.90
2023-04-12T02:42:07.986Z,34.40
2023-04-12T02:48:11.733Z,30.80
2023-04-12T02:51:13.449Z,30.10
2023-04-12T02:57:16.958Z,29.40
2023-04-12T03:00:18.658Z,27.30
2023-04-12T03:03:20.529Z,25.30
2023-04-12T03:06:22.187Z,23.40
2023-04-12T03:09:23.982Z,21.30
2023-04-12T03:12:25.529Z,19.40
2023-04-12T03:15:27.181Z,18.60
2023-04-12T03:18:30.637Z,14.50
2023-04-12T03:21:32.809Z,14.70
2023-04-12T03:24:34.423Z,14.00
2023-04-12T03:30:37.639Z,13.40
2023-04-12T03:33:39.677Z,12.70
2023-04-12T03:36:41.197Z,12.50
2023-04-12T03:39:42.748Z,11.90
2023-04-12T03:45:46.030Z,11.90
2023-04-12T03:48:49.026Z,11.30
2023-04-12T03:51:50.687Z,10.20
2023-04-12T04:00:55.554Z,10.00
2023-04-12T04:03:58.094Z,9.90
2023-04-12T04:07:00.061Z,9.70
2023-04-12T04:13:03.391Z,10.10
2023-04-12T04:16:06.557Z,9.90
2023-04-12T04:19:08.289Z,10.60
2023-04-12T04:25:11.309Z,9.70
2023-04-12T04:28:12.916Z,10.50
2023-04-12T04:34:15.992Z,11.10
2023-04-12T04:37:18.192Z,11.00
2023-04-12T04:40:19.821Z,11.10
2023-04-12T04:43:22.003Z,9.70
2023-04-12T04:46:23.546Z,9.50
2023-04-12T04:52:26.691Z,9.60
2023-04-12T04:58:30.371Z,12.70
2023-04-12T05:01:32.194Z,13.60
2023-04-12T05:04:33.937Z,15.70
2023-04-12T05:10:37.072Z,23.40
2023-04-12T05:16:40.236Z,27.10
2023-04-12T05:22:43.276Z,26.70
2023-04-12T05:25:46.729Z,27.90
2023-04-12T05:28:48.414Z,26.80
2023-04-12T05:34:51.965Z,27.50
2023-04-12T05:37:53.751Z,27.20
2023-04-12T05:43:57.042Z,24.50
2023-04-12T05:46:58.576Z,27.40
2023-04-12T05:50:00.208Z,24.90
2023-04-12T05:56:03.611Z,25.10
2023-04-12T05:59:05.447Z,24.80
2023-04-12T06:02:07.609Z,25.50
2023-04-12T06:05:09.440Z,25.50
2023-04-12T06:08:11.289Z,24.50
2023-04-12T06:11:13.044Z,24.10
2023-04-12T06:14:14.645Z,23.80
2023-04-12T06:17:16.275Z,22.80
2023-04-12T06:23:19.759Z,23.20
2023-04-12T06:26:21.415Z,24.40
2023-04-12T06:32:24.496Z,26.40
2023-04-12T06:35:26.136Z,25.10
2023-04-12T06:41:29.140Z,24.40
2023-04-12T06:47:32.425Z,23.70
2023-04-12T06:50:35.227Z,24.80
2023-04-12T06:53:36.731Z,22.80
2023-04-12T06:59:40.267Z,20.50
2023-04-12T07:02:42.200Z,19.60
2023-04-12T07:05:44.137Z,17.90
2023-04-12T07:11:47.461Z,18.60
2023-04-12T07:14:49.123Z,19.50
2023-04-12T07:17:50.789Z,19.30
2023-04-12T07:20:55.159Z,18.90
2023-04-12T07:23:57.006Z,21.20
2023-04-12T07:26:58.523Z,20.70
2023-04-12T07:36:20.510Z,19.80
2023-04-12T07:39:22.559Z,19.90
2023-04-12T07:42:24.156Z,20.50
2023-04-12T07:48:27.537Z,17.40
2023-04-12T07:51:29.254Z,18.30
2023-04-12T07:54:30.833Z,14.20
2023-04-12T08:00:35.913Z,15.90
2023-04-12T08:03:37.785Z,15.80
2023-04-12T08:06:39.473Z,16.60
2023-04-12T08:09:41.222Z,16.70
2023-04-12T08:12:42.758Z,16.20
2023-04-12T08:18:46.030Z,20.00
2023-04-12T08:24:49.104Z,21.90
2023-04-12T08:27:51.209Z,22.10
2023-04-12T08:30:53.004Z,21.00
2023-04-12T08:33:54.645Z,22.00
2023-04-12T08:36:56.294Z,21.10
2023-04-12T08:43:01.964Z,20.60
2023-04-12T08:46:03.839Z,20.50
2023-04-12T08:49:05.548Z,20.60
2023-04-12T08:52:08.936Z,21.30
2023-04-12T08:55:10.901Z,20.90
2023-04-12T08:58:15.589Z,19.40
2023-04-12T09:01:19.537Z,20.00
2023-04-12T09:04:21.454Z,20.50
2023-04-12T09:07:23.754Z,19.30
2023-04-12T09:10:31.501Z,19.50
2023-04-12T09:13:34.679Z,19.90
2023-04-12T09:16:40.851Z,19.50
2023-04-12T09:19:42.610Z,19.40
2023-04-12T09:22:45.103Z,20.10
2023-04-12T09:25:47.494Z,20.50
2023-04-12T09:28:49.057Z,18.90
2023-04-12T09:34:58.887Z,17.50
2023-04-12T09:38:10.466Z,15.10
2023-04-12T09:41:23.488Z,13.80
2023-04-12T09:44:28.980Z,13.20
2023-04-12T09:47:38.525Z,12.80
2023-04-12T09:50:40.250Z,13.60
2023-04-12T09:53:45.070Z,16.30
2023-04-12T09:56:47.244Z,15.40
2023-04-12T09:59:49.798Z,13.50
2023-04-12T10:02:53.477Z,13.90
2023-04-12T10:05:55.499Z,11.80
2023-04-12T10:08:57.360Z,12.10
2023-04-12T10:12:00.262Z,13.80
2023-04-12T10:15:05.107Z,13.30
2023-04-12T10:18:07.015Z,12.20
2023-04-12T10:21:08.864Z,10.20
2023-04-12T10:24:11.085Z,8.00
2023-04-12T10:27:12.744Z,7.90
2023-04-12T10:30:37.681Z,8.80
2023-04-12T10:33:42.426Z,8.50
2023-04-12T10:37:00.189Z,8.20
2023-04-12T10:40:09.088Z,9.40
2023-04-12T10:43:40.816Z,9.30
2023-04-12T10:46:46.296Z,8.50
2023-04-12T10:50:34.464Z,9.20
2023-04-12T10:53:42.636Z,8.00
2023-04-12T10:56:52.199Z,8.50
2023-04-12T10:59:58.237Z,7.00
2023-04-12T11:03:10.952Z,6.80
2023-04-12T11:06:26.514Z,6.20
2023-04-12T11:09:48.986Z,6.10
2023-04-12T11:12:54.401Z,6.20
2023-04-12T11:15:57.321Z,6.00
2023-04-12T11:19:00.940Z,6.20
2023-04-12T11:22:17.461Z,5.80
2023-04-12T11:25:19.689Z,5.70
2023-04-12T11:28:28.561Z,6.50
2023-04-12T11:31:32.885Z,6.80
2023-04-12T11:34:40.095Z,7.30
2023-04-12T11:37:44.268Z,7.10
2023-04-12T11:40:48.497Z,6.60
2023-04-12T11:43:57.123Z,7.60
2023-04-12T11:47:01.150Z,7.90
2023-04-12T11:50:04.582Z,7.50
2023-04-12T11:53:17.394Z,7.20
2023-04-12T11:56:24.009Z,6.80
2023-04-12T11:59:38.089Z,7.20
2023-04-12T12:02:56.238Z,7.10
2023-04-12T12:06:12.036Z,7.80
2023-04-12T12:09:14.151Z,7.80
2023-04-12T12:12:15.951Z,6.70
2023-04-12T12:15:17.810Z,6.90
2023-04-12T12:18:19.660Z,7.00
2023-04-12T12:21:21.915Z,6.20
2023-04-12T12:24:23.921Z,6.30
2023-04-12T12:27:34.463Z,6.30
2023-04-12T12:30:38.457Z,6.30
2023-04-12T12:33:46.528Z,6.30
2023-04-12T12:36:54.738Z,6.40
2023-04-12T12:40:06.693Z,5.80
2023-04-12T12:43:18.404Z,5.90
2023-04-12T12:46:20.641Z,6.00
2023-04-12T12:49:22.578Z,6.10
2023-04-12T12:52:24.466Z,6.10
2023-04-12T12:55:27.024Z,6.10
2023-04-12T12:58:29.598Z,5.70
2023-04-12T13:01:31.314Z,5.60
2023-04-12T13:04:33.429Z,6.30
2023-04-12T13:07:35.457Z,6.20
2023-04-12T13:10:37.100Z,6.30
2023-04-12T13:13:38.859Z,7.20
2023-04-12T13:16:40.798Z,7.20
2023-04-12T13:19:42.482Z,7.90
2023-04-12T13:22:44.194Z,7.00
2023-04-12T13:25:45.934Z,8.00
2023-04-12T13:28:47.679Z,7.40
2023-04-12T13:31:49.522Z,7.90
2023-04-12T13:34:51.454Z,9.50
2023-04-12T13:37:53.156Z,8.50
2023-04-12T13:40:55.082Z,8.50
2023-04-12T13:43:56.831Z,7.90
2023-04-12T13:46:58.516Z,7.30
2023-04-12T13:50:01.277Z,8.10
2023-04-12T13:53:03.123Z,8.10
2023-04-12T13:56:04.963Z,8.40
2023-04-12T13:59:06.671Z,10.10
2023-04-12T14:02:08.663Z,8.20
2023-04-12T14:05:10.665Z,7.90
2023-04-12T14:08:12.545Z,7.70
2023-04-12T14:11:14.283Z,8.50
2023-04-12T14:14:16.941Z,8.50
2023-04-12T14:17:19.204Z,8.40
2023-04-12T14:20:20.994Z,7.50
2023-04-12T14:23:24.237Z,7.40
2023-04-12T14:26:26.194Z,7.70
2023-04-12T14:29:28.198Z,8.00
2023-04-12T14:32:30.060Z,7.60
2023-04-12T14:35:31.735Z,8.10
2023-04-12T14:38:33.781Z,7.30
2023-04-12T14:41:35.617Z,8.90
2023-04-12T14:44:37.341Z,10.70
2023-04-12T14:47:38.979Z,7.70
2023-04-12T14:50:40.859Z,7.90
2023-04-12T14:53:42.569Z,8.10
2023-04-12T14:56:52.374Z,8.30
2023-04-12T14:59:55.544Z,8.30
2023-04-12T15:02:57.654Z,7.80
2023-04-12T15:05:59.622Z,8.60
2023-04-12T15:09:02.711Z,7.80
2023-04-12T15:12:05.958Z,8.00
2023-04-12T15:15:08.209Z,8.10
2023-04-12T15:18:09.831Z,7.90
2023-04-12T15:21:12.517Z,8.00
2023-04-12T15:24:14.254Z,7.60
2023-04-12T15:27:16.035Z,7.80
2023-04-12T15:30:17.855Z,7.30
2023-04-12T15:33:19.783Z,7.00
2023-04-12T15:36:21.533Z,7.10
2023-04-12T15:39:23.311Z,7.10
2023-04-12T15:42:25.009Z,6.90
2023-04-12T15:45:26.761Z,6.90
2023-04-12T15:48:28.615Z,11.70
2023-04-12T15:52:08.413Z,8.60
2023-04-12T15:55:10.159Z,66.60
2023-04-12T15:58:11.994Z,46.80
2023-04-12T16:01:13.681Z,34.40
2023-04-12T16:04:15.685Z,41.50
2023-04-12T16:07:17.438Z,19.70
2023-04-12T16:10:20.022Z,10.70
2023-04-12T16:13:21.783Z,8.90
2023-04-12T16:16:23.783Z,8.50
2023-04-12T16:19:25.571Z,8.50
2023-04-12T16:22:27.438Z,8.00
2023-04-12T16:25:29.213Z,8.50
2023-04-12T16:28:31.721Z,7.50
2023-04-12T16:31:33.528Z,7.30
2023-04-12T16:34:35.761Z,7.00
2023-04-12T16:37:37.490Z,6.90
2023-04-12T16:40:39.953Z,6.50
2023-04-12T16:43:43.979Z,7.80
2023-04-12T16:46:47.184Z,10.00
2023-04-12T16:49:48.959Z,10.50
2023-04-12T16:52:50.794Z,9.00
2023-04-12T16:55:52.498Z,10.80
2023-04-12T16:58:56.636Z,10.10
2023-04-12T17:01:58.375Z,10.60
2023-04-12T17:05:00.259Z,18.20
2023-04-12T17:08:02.383Z,15.60
2023-04-12T17:11:04.270Z,13.50
2023-04-12T17:14:06.131Z,13.40
2023-04-12T17:17:07.923Z,14.60
2023-04-12T17:20:09.997Z,12.60
2023-04-12T17:23:11.976Z,11.50
2023-04-12T17:26:14.371Z,10.40
2023-04-12T17:29:16.066Z,9.80
2023-04-12T17:32:18.976Z,12.50
2023-04-12T17:35:20.873Z,14.50
2023-04-12T17:38:22.833Z,23.30
2023-04-12T17:41:25.029Z,19.70
2023-04-12T17:44:26.763Z,21.10
2023-04-12T17:47:28.471Z,20.30
2023-04-12T17:50:30.130Z,22.70
2023-04-12T17:53:31.891Z,28.60
2023-04-12T17:56:33.742Z,23.00
2023-04-12T17:59:35.489Z,28.50
2023-04-12T18:02:37.331Z,31.70
2023-04-12T18:05:39.116Z,24.30
2023-04-12T18:08:41.207Z,16.40
2023-04-12T18:11:42.919Z,16.50
2023-04-12T18:14:45.055Z,30.40
2023-04-12T18:17:46.973Z,38.60
2023-04-12T18:20:48.687Z,54.70
2023-04-12T18:23:52.418Z,25.90
2023-04-12T18:26:54.281Z,18.80
2023-04-12T18:29:56.268Z,35.00
2023-04-12T18:32:58.263Z,32.00
2023-04-12T18:36:00.326Z,41.40
2023-04-12T18:39:01.953Z,27.30
2023-04-12T18:42:03.748Z,22.30
2023-04-12T18:48:07.628Z,39.20
2023-04-12T18:51:09.347Z,56.60
2023-04-12T18:57:14.355Z,36.20
2023-04-12T19:00:16.819Z,35.80
2023-04-12T19:03:18.781Z,36.70
2023-04-12T19:06:20.869Z,36.60
2023-04-12T19:09:22.900Z,35.10
2023-04-12T19:12:24.697Z,35.00
2023-04-12T19:18:30.949Z,39.60
2023-04-12T19:21:33.867Z,49.20
2023-04-12T19:24:35.759Z,46.70
2023-04-12T19:27:38.662Z,40.80
2023-04-12T19:30:40.484Z,36.50
2023-04-12T19:33:42.391Z,30.70
2023-04-12T19:39:45.716Z,17.70
2023-04-12T19:45:48.972Z,23.80
2023-04-12T19:51:52.209Z,34.20
2023-04-12T19:57:55.661Z,22.50
2023-04-12T20:03:59.013Z,19.30
2023-04-12T20:10:02.459Z,21.00
2023-04-12T20:16:05.986Z,35.80
2023-04-12T20:19:07.706Z,35.60
2023-04-12T20:25:11.341Z,24.40
2023-04-12T20:28:13.111Z,20.30
2023-04-12T20:31:14.848Z,16.80
2023-04-12T20:37:18.282Z,13.80
2023-04-12T20:43:21.687Z,30.40
2023-04-12T20:46:23.437Z,43.10
2023-04-12T20:52:26.604Z,42.40
2023-04-12T20:55:28.233Z,37.80
2023-04-12T21:01:31.529Z,21.40
2023-04-12T21:07:35.081Z,18.10
2023-04-12T21:13:40.143Z,22.00
2023-04-12T21:16:42.669Z,25.40
2023-04-12T21:19:44.386Z,25.20
2023-04-12T21:25:49.868Z,27.70
2023-04-12T21:28:51.611Z,31.30
2023-04-12T21:31:56.702Z,32.30
2023-04-12T21:34:58.466Z,34.00
2023-04-12T21:41:08.863Z,31.70
2023-04-12T21:44:10.558Z,35.70
2023-04-12T21:50:13.821Z,32.50
2023-04-12T21:53:15.565Z,30.90
2023-04-12T21:56:17.171Z,28.20
2023-04-12T22:02:20.423Z,45.40
2023-04-12T22:08:23.750Z,61.10
2023-04-12T22:11:25.448Z,51.90
2023-04-12T22:14:27.063Z,35.90
2023-04-12T22:17:29.639Z,29.50
2023-04-12T22:20:31.574Z,35.70
2023-04-12T22:23:33.644Z,36.40
2023-04-12T22:26:35.349Z,31.10
2023-04-12T22:32:38.918Z,27.90
2023-04-12T22:35:40.572Z,27.80
2023-04-12T22:41:43.776Z,41.60
2023-04-12T22:44:45.413Z,23.80
2023-04-12T22:50:48.702Z,24.80
2023-04-12T22:53:50.306Z,23.20
2023-04-12T22:56:52.639Z,27.80
2023-04-12T22:59:54.260Z,20.90
2023-04-12T23:02:56.047Z,15.80
2023-04-12T23:05:57.719Z,13.90
2023-04-12T23:12:01.121Z,20.80
2023-04-12T23:15:02.906Z,21.90
2023-04-12T23:18:04.745Z,17.60
2023-04-12T23:24:08.345Z,21.90
2023-04-12T23:30:12.471Z,26.50
2023-04-12T23:33:14.739Z,27.00
2023-04-12T23:36:16.367Z,22.20
2023-04-12T23:39:18.048Z,23.40
2023-04-12T23:45:21.342Z,13.50
2023-04-12T23:51:24.755Z,16.80
2023-04-12T23:54:26.380Z,19.20
2023-04-12T23:57:28.108Z,20.30
